アシガバート の空港の天気 - METARとTAF

アシガバート空港 ( UTAA / ASB ) - トルクメニスタン アシガバート
飛行場実況気象(Metar)
観測時間08/17 08:00 TMT (08/17 03:00 UTC)
風向・風速西 3m/s
視程10km以上
天気現象
少しの雲 雲底高度 3050m
気温24℃
湿度29%
気圧1013hPa
METARUTAA 170300Z 26005KT 9999 FEW100 24/05 Q1013 NOSIG
過去の天気等 Google飛行場航空写真 Wunderground天気予報

過去48時間のMETAR

飛行場予報(TAF)
発表時間: 8/17 03:30 TMT (8/16 22:30 UTC)
予報対象時間: 17日5時 TMT ~ 18日5時 TMT
風向・風速東 8m/s
視程5,000m
全天の4割程度の積乱雲 雲底高度 1,520m
17日5時 TMT ~ 17日10時 TMT に一時的に
風向・風速北北西 8m/s
17日10時 TMT ~ 17日17時 TMT に一時的に
風向・風速東南東 8m/s 瞬間風速 13m/s
視程3,000m
天気現象高い風塵
TAF UTAA 162230Z 1700/1724 08016KT 5000 SCT050CB 530009 530905
TEMPO 1700/1705 33016KT
TEMPO 1705/1712 12016G26KT 3000 BLDU